Time;durP1;ratioP1;P1;durP2;ratioP2;P2;SDS_P1;SDS_P2;PMS_P1;PMS_P2;Temp;Humidity;BMP_temperature;BMP_pressure;BME280_temperature;BME280_humidity;BME280_pressure;Samples;Min_cycle;Max_cycle;Signal;HPM_P1;HPM_P2
2022/06/10 06:02:13;;;;;;;5.57;3.65;;;;;;;;;;10455354;28;20767;-86
2022/06/10 06:07:31;;;;;;;5.75;3.53;;;;;;;;;;10571171;28;20032;-86
2022/06/10 06:12:54;;;;;;;6.10;3.50;;;;;;;;;;10566333;28;20040;-86
2022/06/10 06:18:15;;;;;;;4.95;3.50;;;;;;;;;;10505330;28;20036;-86
2022/06/10 06:28:55;;;;;;;8.35;3.50;;;;;;;;;;10596458;28;20107;-85
2022/06/10 06:34:02;;;;;;;6.47;3.47;;;;;;;;;;10577384;28;20034;-85
2022/06/10 06:39:07;;;;;;;6.00;3.53;;;;;;;;;;10595765;28;20046;-85
2022/06/10 06:44:08;;;;;;;5.35;2.83;;;;;;;;;;10559063;28;20032;-86
2022/06/10 06:49:11;;;;;;;5.68;3.30;;;;;;;;;;10586713;28;20031;-86
2022/06/10 06:54:20;;;;;;;9.63;3.50;;;;;;;;;;10566450;28;20119;-86
2022/06/10 06:59:23;;;;;;;3.35;2.00;;;;;;;;;;10571114;28;20048;-84
2022/06/10 07:04:25;;;;;;;3.72;2.13;;;;;;;;;;10570552;28;20020;-84
2022/06/10 07:09:30;;;;;;;5.28;2.90;;;;;;;;;;10561840;28;20032;-84
2022/06/10 07:14:31;;;;;;;6.65;2.65;;;;;;;;;;10543477;28;20032;-81
2022/06/10 07:19:32;;;;;;;3.83;2.53;;;;;;;;;;10533690;28;20490;-80
2022/06/10 07:24:33;;;;;;;4.78;2.60;;;;;;;;;;10532480;28;20024;-81
2022/06/10 07:29:34;;;;;;;4.80;2.97;;;;;;;;;;10537148;28;20053;-81
2022/06/10 07:34:35;;;;;;;5.13;3.10;;;;;;;;;;10532912;28;20107;-81
2022/06/10 07:39:36;;;;;;;8.32;2.80;;;;;;;;;;10534496;28;20512;-81
2022/06/10 07:44:38;;;;;;;5.03;3.17;;;;;;;;;;10531028;28;20119;-81
2022/06/10 07:49:39;;;;;;;5.40;2.85;;;;;;;;;;10532597;28;20027;-81
2022/06/10 07:54:40;;;;;;;5.60;2.55;;;;;;;;;;10533437;28;20020;-81
2022/06/10 07:59:42;;;;;;;5.80;2.80;;;;;;;;;;10549217;28;20126;-80
2022/06/10 08:04:43;;;;;;;6.00;2.80;;;;;;;;;;10529890;28;20047;-80
2022/06/10 08:09:44;;;;;;;6.13;3.20;;;;;;;;;;10530150;28;20073;-81
2022/06/10 08:14:45;;;;;;;6.00;3.13;;;;;;;;;;10531751;28;20024;-80
2022/06/10 08:19:46;;;;;;;5.40;3.40;;;;;;;;;;10533384;28;20036;-81
2022/06/10 08:24:47;;;;;;;5.22;2.75;;;;;;;;;;10547277;28;20024;-80
2022/06/10 08:29:50;;;;;;;7.10;3.28;;;;;;;;;;10550720;28;20052;-79
2022/06/10 08:34:52;;;;;;;5.20;3.10;;;;;;;;;;10548276;28;20136;-80
2022/06/10 08:39:53;;;;;;;4.90;2.70;;;;;;;;;;10548811;28;20047;-81
2022/06/10 08:44:55;;;;;;;5.85;2.63;;;;;;;;;;10551440;28;20051;-80
2022/06/10 08:49:56;;;;;;;6.53;3.05;;;;;;;;;;10535603;28;20047;-81
2022/06/10 08:55:15;;;;;;;5.50;2.60;;;;;;;;;;10552899;28;20082;-82
2022/06/10 09:00:22;;;;;;;7.03;2.65;;;;;;;;;;10534964;28;20048;-80
2022/06/10 09:05:28;;;;;;;7.35;2.63;;;;;;;;;;10534574;28;20385;-81
2022/06/10 09:10:46;;;;;;;4.55;2.20;;;;;;;;;;10537902;28;20052;-80
2022/06/10 09:16:05;;;;;;;7.68;2.45;;;;;;;;;;10534923;28;20047;-80
2022/06/10 09:21:16;;;;;;;7.28;2.53;;;;;;;;;;10539206;28;20028;-80
2022/06/10 09:26:17;;;;;;;;;;;;;;;;;;10532839;28;20073;-81
2022/06/10 09:31:26;;;;;;;5.88;3.03;;;;;;;;;;10529077;28;19908;-80
2022/06/10 09:36:45;;;;;;;7.05;2.80;;;;;;;;;;10545356;28;20016;-81
2022/06/10 09:41:53;;;;;;;6.57;2.50;;;;;;;;;;10544731;28;20111;-80
2022/06/10 09:46:54;;;;;;;6.85;2.70;;;;;;;;;;10528029;28;20036;-80
2022/06/10 09:51:55;;;;;;;4.47;2.53;;;;;;;;;;10527544;28;20080;-82
2022/06/10 09:56:56;;;;;;;8.70;3.33;;;;;;;;;;10530850;28;20051;-85
2022/06/10 10:02:16;;;;;;;5.15;2.67;;;;;;;;;;10535271;28;20028;-84
2022/06/10 10:07:31;;;;;;;5.60;2.30;;;;;;;;;;10533812;28;20024;-83
2022/06/10 10:12:32;;;;;;;3.95;1.95;;;;;;;;;;10534198;28;20402;-84
2022/06/10 10:17:36;;;;;;;3.70;1.73;;;;;;;;;;10534769;28;20032;-84
2022/06/10 10:22:56;;;;;;;4.57;1.63;;;;;;;;;;10536098;28;20050;-84
2022/06/10 10:27:58;;;;;;;3.67;1.70;;;;;;;;;;10534929;28;20473;-84
2022/06/10 10:33:01;;;;;;;3.67;1.80;;;;;;;;;;10536054;28;20530;-85
2022/06/10 10:38:04;;;;;;;3.85;1.40;;;;;;;;;;10528334;28;20031;-80
2022/06/10 10:43:13;;;;;;;3.90;1.38;;;;;;;;;;10526197;28;20028;-82
2022/06/10 10:48:19;;;;;;;4.63;2.20;;;;;;;;;;10535500;28;20513;-80
2022/06/10 10:53:22;;;;;;;6.05;4.07;;;;;;;;;;10535898;28;20077;-82
2022/06/10 10:58:54;;;;;;;3.63;2.50;;;;;;;;;;10534629;28;20032;-82
2022/06/10 11:04:05;;;;;;;3.42;1.80;;;;;;;;;;10514171;28;20103;-82
2022/06/10 11:09:23;;;;;;;5.13;2.17;;;;;;;;;;10534718;28;20024;-82
2022/06/10 11:14:24;;;;;;;3.33;1.40;;;;;;;;;;10532948;28;20024;-82
2022/06/10 11:19:45;;;;;;;3.55;1.20;;;;;;;;;;10531304;28;20024;-80
2022/06/10 11:24:53;;;;;;;5.07;1.63;;;;;;;;;;10478967;28;20127;-81
2022/06/10 11:30:13;;;;;;;4.27;1.50;;;;;;;;;;10555534;28;20038;-80
2022/06/10 11:35:31;;;;;;;5.75;1.52;;;;;;;;;;10531308;28;20193;-80
2022/06/10 11:40:38;;;;;;;7.90;4.05;;;;;;;;;;10530900;28;20051;-80
2022/06/10 11:45:45;;;;;;;5.47;1.48;;;;;;;;;;10548951;28;20077;-80
2022/06/10 11:50:49;;;;;;;6.00;1.75;;;;;;;;;;10547694;28;20020;-79
2022/06/10 11:59:42;;;;;;;4.82;1.95;;;;;;;;;;10529141;28;20020;-79
2022/06/10 12:01:21;;;;;;;4.05;1.38;;;;;;;;;;10546165;28;20066;-78
2022/06/10 12:06:31;;;;;;;3.53;1.60;;;;;;;;;;10527784;28;20024;-80
2022/06/10 12:11:41;;;;;;;4.07;1.63;;;;;;;;;;10525954;28;20126;-78
2022/06/10 12:16:43;;;;;;;4.55;1.67;;;;;;;;;;10526721;28;20020;-79
2022/06/10 12:21:44;;;;;;;10.38;6.82;;;;;;;;;;10525534;28;20425;-78
2022/06/10 12:26:47;;;;;;;3.72;1.40;;;;;;;;;;10526487;28;20085;-80
2022/06/10 12:32:00;;;;;;;4.97;2.53;;;;;;;;;;10526845;28;20020;-79
2022/06/10 12:37:03;;;;;;;4.65;1.60;;;;;;;;;;10527136;28;20020;-79
2022/06/10 12:42:07;;;;;;;6.80;3.90;;;;;;;;;;10537652;28;20055;-80
2022/06/10 12:47:13;;;;;;;6.65;2.00;;;;;;;;;;10526578;28;20572;-80
2022/06/10 12:52:20;;;;;;;5.10;2.10;;;;;;;;;;10529085;28;20389;-82
2022/06/10 12:57:38;;;;;;;5.13;2.20;;;;;;;;;;10526736;28;20027;-79
2022/06/10 13:02:44;;;;;;;8.15;3.88;;;;;;;;;;10526544;28;20044;-81
2022/06/10 13:07:47;;;;;;;4.07;2.00;;;;;;;;;;10525136;28;20028;-79
2022/06/10 13:12:50;;;;;;;7.15;3.05;;;;;;;;;;10524857;28;20022;-78
2022/06/10 13:17:54;;;;;;;3.20;1.85;;;;;;;;;;10523811;28;20473;-79
2022/06/10 13:23:13;;;;;;;5.50;1.60;;;;;;;;;;10523144;28;20051;-80
2022/06/10 13:28:37;;;;;;;5.75;2.92;;;;;;;;;;10523170;28;20062;-79
2022/06/10 13:33:51;;;;;;;5.82;2.92;;;;;;;;;;10523491;28;20027;-79
2022/06/10 13:38:54;;;;;;;5.72;2.63;;;;;;;;;;10523361;28;20048;-79
2022/06/10 13:43:56;;;;;;;5.22;2.17;;;;;;;;;;10540563;28;20028;-79
2022/06/10 13:49:45;;;;;;;6.10;2.65;;;;;;;;;;10538690;28;20477;-79
2022/06/10 13:54:46;;;;;;;4.18;2.33;;;;;;;;;;10521723;28;20123;-79
2022/06/10 13:59:58;;;;;;;8.57;4.07;;;;;;;;;;10542490;28;20051;-79
2022/06/10 14:05:01;;;;;;;7.43;2.67;;;;;;;;;;10533712;28;20440;-79
2022/06/10 14:10:04;;;;;;;4.97;2.15;;;;;;;;;;10550457;28;20028;-79
2022/06/10 14:15:12;;;;;;;4.22;2.40;;;;;;;;;;10530562;28;20384;-79
2022/06/10 14:20:14;;;;;;;6.78;2.28;;;;;;;;;;10534374;28;20056;-79
2022/06/10 14:25:40;;;;;;;5.65;2.65;;;;;;;;;;10546756;28;20092;-84
2022/06/10 14:31:14;;;;;;;14.00;9.40;;;;;;;;;;10544291;28;20131;-84
2022/06/10 14:36:27;;;;;;;5.25;2.47;;;;;;;;;;10538143;28;20024;-84
2022/06/10 14:41:34;;;;;;;4.55;2.00;;;;;;;;;;10537436;28;20028;-84
2022/06/10 14:46:35;;;;;;;7.25;2.55;;;;;;;;;;10537072;28;20092;-84
2022/06/10 14:51:42;;;;;;;5.45;2.40;;;;;;;;;;10538308;28;20104;-84
2022/06/10 14:56:44;;;;;;;5.05;2.10;;;;;;;;;;10539616;28;20020;-85
2022/06/10 15:01:51;;;;;;;3.70;1.42;;;;;;;;;;10555648;28;20076;-84
2022/06/10 15:06:58;;;;;;;4.95;1.88;;;;;;;;;;10544209;28;20039;-82
2022/06/10 15:12:16;;;;;;;4.00;1.60;;;;;;;;;;10571243;28;20035;-81
2022/06/10 15:17:18;;;;;;;4.20;1.50;;;;;;;;;;10556892;28;20020;-81
2022/06/10 15:22:21;;;;;;;8.02;1.70;;;;;;;;;;10544839;28;20391;-82
2022/06/10 15:27:23;;;;;;;3.88;1.85;;;;;;;;;;10544298;28;20020;-84
2022/06/10 15:32:24;;;;;;;3.17;1.50;;;;;;;;;;10544544;28;20517;-84
2022/06/10 15:42:47;;;;;;;4.50;1.98;;;;;;;;;;10551294;28;20036;-83
2022/06/10 15:47:49;;;;;;;4.57;2.35;;;;;;;;;;10538957;28;20020;-83
2022/06/10 15:52:50;;;;;;;4.28;1.95;;;;;;;;;;10532433;28;20020;-83
2022/06/10 15:57:51;;;;;;;5.90;2.10;;;;;;;;;;10532071;28;20024;-83
2022/06/10 16:02:53;;;;;;;4.88;2.13;;;;;;;;;;10553198;28;20050;-82
2022/06/10 16:07:54;;;;;;;4.72;2.35;;;;;;;;;;10554523;28;20024;-82
2022/06/10 16:13:02;;;;;;;4.32;2.97;;;;;;;;;;10551967;28;20054;-82
2022/06/10 16:18:04;;;;;;;5.55;2.85;;;;;;;;;;10533330;28;20047;-83
2022/06/10 16:23:06;;;;;;;6.18;2.00;;;;;;;;;;10553873;28;20024;-80
2022/06/10 16:28:29;;;;;;;5.38;2.78;;;;;;;;;;10551802;28;20042;-83
2022/06/10 16:33:37;;;;;;;6.47;2.72;;;;;;;;;;10543976;28;20036;-84
2022/06/10 16:38:42;;;;;;;5.50;2.78;;;;;;;;;;10550387;28;20059;-83
2022/06/10 16:43:44;;;;;;;4.30;2.50;;;;;;;;;;10535897;28;20536;-85
2022/06/10 16:48:48;;;;;;;4.60;2.83;;;;;;;;;;10554032;28;20020;-86
2022/06/10 16:53:51;;;;;;;4.40;2.30;;;;;;;;;;10550845;28;20039;-83
2022/06/10 16:59:05;;;;;;;6.95;2.60;;;;;;;;;;10550898;28;20043;-84
2022/06/10 17:04:11;;;;;;;7.57;2.17;;;;;;;;;;10550816;28;20107;-85
2022/06/10 17:09:14;;;;;;;7.07;2.00;;;;;;;;;;10532253;28;20035;-84
2022/06/10 17:14:18;;;;;;;6.68;2.03;;;;;;;;;;10548591;28;20115;-84
2022/06/10 17:19:21;;;;;;;3.75;1.98;;;;;;;;;;10536555;28;20024;-84
2022/06/10 17:24:27;;;;;;;5.63;2.47;;;;;;;;;;10531700;28;20067;-83
2022/06/10 17:29:35;;;;;;;4.32;2.10;;;;;;;;;;10535766;28;20027;-83
2022/06/10 17:34:36;;;;;;;5.93;2.42;;;;;;;;;;10532827;28;20052;-83
2022/06/10 17:39:37;;;;;;;5.82;2.20;;;;;;;;;;10548683;28;20024;-83
2022/06/10 17:44:38;;;;;;;5.78;2.90;;;;;;;;;;10533675;28;20028;-84
2022/06/10 17:49:41;;;;;;;3.75;2.10;;;;;;;;;;10549683;28;20093;-83
2022/06/10 17:54:44;;;;;;;4.25;2.40;;;;;;;;;;10534275;28;20050;-83
2022/06/10 17:59:45;;;;;;;6.00;2.55;;;;;;;;;;10544069;28;20036;-84
2022/06/10 18:04:46;;;;;;;5.15;2.25;;;;;;;;;;10528019;28;20082;-83
2022/06/10 18:09:47;;;;;;;4.88;2.30;;;;;;;;;;10528138;28;20520;-82
2022/06/10 18:14:55;;;;;;;4.03;2.28;;;;;;;;;;10531088;28;20024;-83
2022/06/10 18:19:56;;;;;;;4.93;2.17;;;;;;;;;;10530159;28;20439;-83
2022/06/10 18:24:57;;;;;;;3.75;2.05;;;;;;;;;;10531319;28;20028;-86
2022/06/10 18:30:00;;;;;;;5.18;1.92;;;;;;;;;;10527916;28;20032;-84
2022/06/10 18:35:10;;;;;;;4.57;2.10;;;;;;;;;;10530974;28;20016;-83
2022/06/10 18:40:15;;;;;;;5.97;2.95;;;;;;;;;;10532215;28;20028;-85
2022/06/10 18:45:16;;;;;;;6.25;2.65;;;;;;;;;;10529247;28;20020;-84
2022/06/10 18:50:26;;;;;;;4.20;2.20;;;;;;;;;;10527273;28;20112;-85
2022/06/10 18:55:29;;;;;;;4.93;2.33;;;;;;;;;;10527192;28;20062;-84
2022/06/10 19:00:31;;;;;;;6.05;2.67;;;;;;;;;;10527653;28;20035;-84
2022/06/10 19:05:34;;;;;;;4.22;2.13;;;;;;;;;;10548272;28;20032;-85
2022/06/10 19:10:38;;;;;;;3.85;2.00;;;;;;;;;;10535894;28;20020;-84
2022/06/10 19:15:44;;;;;;;6.22;2.22;;;;;;;;;;10535780;28;20099;-84
2022/06/10 19:20:46;;;;;;;4.47;2.90;;;;;;;;;;10535628;28;20165;-84
2022/06/10 19:25:50;;;;;;;58.58;44.78;;;;;;;;;;10536760;28;20415;-84
